Time,TemperatureF,DewpointF,PressureIn,WindDirection,WindDirectionDegrees,WindSpeedMPH,WindSpeedGustMPH,Humidity,HourlyPrecipIn,Conditions,Clouds,dailyrainin,SoftwareType,DateUTC
2013-01-26 00:00:00,15.5,13.8,30.25,NE,45,0.0,1.2,93,0.00,-SN,,0.00,WeatherDisplay:10.37,2013-01-26 05:00:00,
2013-01-26 00:05:00,15.5,13.8,30.24,NE,45,0.0,0.0,93,0.00,-SN,,0.00,WeatherDisplay:10.37,2013-01-26 05:05:00,
2013-01-26 00:10:00,15.5,13.8,30.24,NE,45,0.0,0.0,93,0.00,-SN,,0.00,WeatherDisplay:10.37,2013-01-26 05:10:00,
2013-01-26 00:15:00,15.5,13.8,30.24,NE,45,0.0,0.0,93,0.00,-SN,,0.00,WeatherDisplay:10.37,2013-01-26 05:15:00,
2013-01-26 00:20:00,15.4,13.7,30.24,NE,45,0.0,0.0,93,0.00,-SN,,0.00,WeatherDisplay:10.37,2013-01-26 05:20:00,
2013-01-26 00:25:00,15.4,13.7,30.24,NE,45,0.0,0.0,93,0.00,-SN,,0.00,WeatherDisplay:10.37,2013-01-26 05:25:00,
2013-01-26 00:30:00,15.3,13.6,30.24,NE,45,0.0,0.0,93,0.00,-SN,,0.00,WeatherDisplay:10.37,2013-01-26 05:30:00,
2013-01-26 00:35:00,15.3,13.6,30.24,NE,45,0.0,0.0,93,0.00,-SN,,0.00,WeatherDisplay:10.37,2013-01-26 05:35:00,
2013-01-26 00:40:00,15.3,13.6,30.23,NE,45,0.0,0.0,93,0.00,-SN,,0.00,WeatherDisplay:10.37,2013-01-26 05:40:00,
2013-01-26 00:45:00,15.3,13.6,30.23,NE,45,0.1,1.2,93,0.00,-SN,,0.00,WeatherDisplay:10.37,2013-01-26 05:45:00,
2013-01-26 00:50:00,15.3,13.6,30.23,NE,45,0.0,0.0,93,0.00,-SN,,0.00,WeatherDisplay:10.37,2013-01-26 05:50:00,
2013-01-26 00:55:00,15.3,13.6,30.23,NE,45,0.4,1.2,93,0.00,,,0.00,WeatherDisplay:10.37,2013-01-26 05:55:00,
2013-01-26 01:00:00,15.2,13.5,30.23,NE,45,0.0,0.0,93,0.00,,,0.00,WeatherDisplay:10.37,2013-01-26 06:00:00,
2013-01-26 01:05:00,15.1,13.4,30.23,NE,45,0.0,0.0,93,0.00,-SN,,0.00,WeatherDisplay:10.37,2013-01-26 06:05:00,
2013-01-26 01:10:00,14.8,13.1,30.23,NE,45,0.0,0.0,93,0.00,-SN,,0.00,WeatherDisplay:10.37,2013-01-26 06:10:00,
2013-01-26 01:15:00,14.5,12.8,30.24,NE,45,0.0,0.0,93,0.00,-SN,,0.00,WeatherDisplay:10.37,2013-01-26 06:15:00,
2013-01-26 01:20:00,14.2,12.5,30.23,NE,45,0.0,0.0,93,0.00,-SN,,0.00,WeatherDisplay:10.37,2013-01-26 06:20:00,
2013-01-26 01:25:00,13.8,12.2,30.23,NE,45,0.0,0.0,93,0.00,-SN,,0.00,WeatherDisplay:10.37,2013-01-26 06:25:00,
2013-01-26 01:31:00,13.4,11.8,30.23,NE,45,0.0,0.0,93,0.00,-SN,,0.00,WeatherDisplay:10.37,2013-01-26 06:31:00,
2013-01-26 01:36:00,12.9,11.3,30.23,NE,45,0.0,0.0,93,0.00,-SN,,0.00,WeatherDisplay:10.37,2013-01-26 06:36:00,
2013-01-26 01:41:00,12.5,10.9,30.23,NE,45,0.0,0.0,93,0.00,-SN,,0.00,WeatherDisplay:10.37,2013-01-26 06:41:00,
2013-01-26 01:46:00,12.2,10.6,30.23,NE,45,0.0,0.0,93,0.00,-SN,,0.00,WeatherDisplay:10.37,2013-01-26 06:46:00,
2013-01-26 01:51:00,11.7,10.1,30.23,NE,45,0.0,0.0,93,0.00,-SN,,0.00,WeatherDisplay:10.37,2013-01-26 06:51:00,
2013-01-26 01:56:00,11.4,9.8,30.23,NE,45,0.0,0.0,93,0.00,-SN,,0.00,WeatherDisplay:10.37,2013-01-26 06:56:00,
2013-01-26 02:01:00,10.9,9.0,30.23,NE,45,0.0,0.0,92,0.00,-SN,,0.00,WeatherDisplay:10.37,2013-01-26 07:01:00,
2013-01-26 02:06:00,10.6,8.7,30.23,NE,45,0.0,0.0,92,0.00,-SN,,0.00,WeatherDisplay:10.37,2013-01-26 07:06:00,
2013-01-26 02:11:00,10.3,8.4,30.23,NE,45,0.0,0.0,92,0.00,SCT,,0.00,WeatherDisplay:10.37,2013-01-26 07:11:00,
2013-01-26 02:16:00,9.9,8.0,30.24,NE,45,0.0,0.0,92,0.00,SCT,,0.00,WeatherDisplay:10.37,2013-01-26 07:16:00,
2013-01-26 02:21:00,9.7,7.8,30.24,NE,45,0.0,0.0,92,0.00,SCT,,0.00,WeatherDisplay:10.37,2013-01-26 07:21:00,
2013-01-26 02:26:00,10.2,8.3,30.24,NE,45,0.0,1.2,92,0.00,SCT,,0.00,WeatherDisplay:10.37,2013-01-26 07:26:00,
2013-01-26 02:31:00,10.7,8.8,30.23,NE,45,0.0,0.0,92,0.00,SCT,,0.00,WeatherDisplay:10.37,2013-01-26 07:31:00,
2013-01-26 02:36:00,10.9,9.0,30.22,NE,45,0.0,0.0,92,0.00,SCT,,0.00,WeatherDisplay:10.37,2013-01-26 07:36:00,
2013-01-26 02:41:00,11.2,9.6,30.22,NE,45,0.0,0.0,93,0.00,SCT,,0.00,WeatherDisplay:10.37,2013-01-26 07:41:00,
2013-01-26 02:46:00,10.9,9.0,30.22,NE,45,0.0,0.0,92,0.00,SCT,,0.00,WeatherDisplay:10.37,2013-01-26 07:46:00,
2013-01-26 02:51:00,10.6,8.7,30.21,NE,45,0.0,0.0,92,0.00,SCT,,0.00,WeatherDisplay:10.37,2013-01-26 07:51:00,
2013-01-26 02:57:00,10.1,8.2,30.21,NE,45,0.0,0.0,92,0.00,SCT,,0.00,WeatherDisplay:10.37,2013-01-26 07:57:00,
2013-01-26 03:02:00,9.6,7.7,30.22,NE,45,0.0,0.0,92,0.00,CLR,,0.00,WeatherDisplay:10.37,2013-01-26 08:02:00,
2013-01-26 03:07:00,9.7,7.8,30.22,NE,45,0.0,0.0,92,0.00,CLR,,0.00,WeatherDisplay:10.37,2013-01-26 08:07:00,
2013-01-26 03:12:00,9.9,8.0,30.22,NW,315,0.4,1.2,92,0.00,CLR,,0.00,WeatherDisplay:10.37,2013-01-26 08:12:00,
2013-01-26 03:17:00,10.3,8.4,30.22,NW,315,0.7,2.3,92,0.00,CLR,,0.00,WeatherDisplay:10.37,2013-01-26 08:17:00,
2013-01-26 03:22:00,9.9,8.0,30.22,NW,315,0.3,1.2,92,0.00,CLR,,0.00,WeatherDisplay:10.37,2013-01-26 08:22:00,
2013-01-26 03:27:00,9.7,7.8,30.22,NW,315,0.0,0.0,92,0.00,CLR,,0.00,WeatherDisplay:10.37,2013-01-26 08:27:00,
2013-01-26 03:32:00,9.4,7.5,30.22,NW,315,0.0,0.0,92,0.00,CLR,,0.00,WeatherDisplay:10.37,2013-01-26 08:32:00,
2013-01-26 03:37:00,8.9,7.1,30.22,NW,315,0.0,1.0,92,0.00,CLR,,0.00,WeatherDisplay:10.37,2013-01-26 08:37:00,
2013-01-26 03:42:00,8.9,7.1,30.22,NW,315,0.0,1.2,92,0.00,CLR,,0.00,WeatherDisplay:10.37,2013-01-26 08:42:00,
2013-01-26 03:47:00,8.7,6.9,30.22,NW,315,0.0,0.0,92,0.00,CLR,,0.00,WeatherDisplay:10.37,2013-01-26 08:47:00,
2013-01-26 03:52:00,8.8,7.0,30.22,NW,315,0.0,0.0,92,0.00,CLR,,0.00,WeatherDisplay:10.37,2013-01-26 08:52:00,
2013-01-26 03:57:00,8.6,6.8,30.22,NW,315,0.0,0.0,92,0.00,CLR,,0.00,WeatherDisplay:10.37,2013-01-26 08:57:00,
2013-01-26 04:02:00,8.2,6.4,30.22,NW,315,0.0,0.0,92,0.00,CLR,,0.00,WeatherDisplay:10.37,2013-01-26 09:02:00,
2013-01-26 04:07:00,7.9,6.1,30.22,NW,315,0.0,0.0,92,0.00,CLR,,0.00,WeatherDisplay:10.37,2013-01-26 09:07:00,
2013-01-26 04:12:00,7.9,6.1,30.22,NW,315,0.2,1.2,92,0.00,CLR,,0.00,WeatherDisplay:10.37,2013-01-26 09:12:00,
2013-01-26 04:17:00,8.1,6.3,30.22,NW,315,0.0,0.0,92,0.00,CLR,,0.00,WeatherDisplay:10.37,2013-01-26 09:17:00,
2013-01-26 04:22:00,8.7,6.9,30.22,NW,315,0.1,1.2,92,0.00,CLR,,0.00,WeatherDisplay:10.37,2013-01-26 09:22:00,
2013-01-26 04:27:00,8.9,7.1,30.21,NW,315,0.3,1.2,92,0.00,CLR,,0.00,WeatherDisplay:10.37,2013-01-26 09:27:00,
2013-01-26 04:32:00,8.8,7.0,30.21,NW,315,0.4,1.2,92,0.00,CLR,,0.00,WeatherDisplay:10.37,2013-01-26 09:32:00,
2013-01-26 04:37:00,8.6,6.8,30.22,NW,315,0.2,1.2,92,0.00,CLR,,0.00,WeatherDisplay:10.37,2013-01-26 09:37:00,
2013-01-26 04:42:00,8.6,6.8,30.22,NW,315,0.4,1.2,92,0.00,CLR,,0.00,WeatherDisplay:10.37,2013-01-26 09:42:00,
2013-01-26 04:47:00,8.6,6.8,30.22,NW,315,0.4,1.2,92,0.00,CLR,,0.00,WeatherDisplay:10.37,2013-01-26 09:47:00,
2013-01-26 04:52:00,8.6,6.8,30.22,NW,315,0.7,1.2,92,0.00,CLR,,0.00,WeatherDisplay:10.37,2013-01-26 09:52:00,
2013-01-26 04:57:00,8.7,6.9,30.22,NW,315,0.5,1.2,92,0.00,CLR,,0.00,WeatherDisplay:10.37,2013-01-26 09:57:00,
2013-01-26 05:02:00,8.6,6.8,30.21,NW,315,0.0,1.2,92,0.00,CLR,,0.00,WeatherDisplay:10.37,2013-01-26 10:02:00,
2013-01-26 05:07:00,8.2,6.4,30.21,NW,315,0.0,0.0,92,0.00,CLR,,0.00,WeatherDisplay:10.37,2013-01-26 10:07:00,
2013-01-26 05:12:00,7.7,5.9,30.22,NW,315,0.0,0.0,92,0.00,CLR,,0.00,WeatherDisplay:10.37,2013-01-26 10:12:00,
2013-01-26 05:17:00,7.2,5.4,30.22,NW,315,0.0,0.0,92,0.00,CLR,,0.00,WeatherDisplay:10.37,2013-01-26 10:17:00,
2013-01-26 05:22:00,7.1,5.3,30.22,NW,315,0.0,0.0,92,0.00,CLR,,0.00,WeatherDisplay:10.37,2013-01-26 10:22:00,
2013-01-26 05:27:00,7.1,5.3,30.23,NW,315,0.2,1.2,92,0.00,CLR,,0.00,WeatherDisplay:10.37,2013-01-26 10:27:00,
2013-01-26 05:32:00,6.9,5.1,30.23,NW,315,0.0,0.0,92,0.00,CLR,,0.00,WeatherDisplay:10.37,2013-01-26 10:32:00,
2013-01-26 05:37:00,6.6,4.8,30.23,NW,315,0.0,0.0,92,0.00,CLR,,0.00,WeatherDisplay:10.37,2013-01-26 10:37:00,
2013-01-26 05:42:00,6.2,4.4,30.23,NW,315,0.0,0.0,92,0.00,CLR,,0.00,WeatherDisplay:10.37,2013-01-26 10:42:00,
2013-01-26 05:47:00,6.4,4.6,30.23,NW,315,0.1,1.2,92,0.00,CLR,,0.00,WeatherDisplay:10.37,2013-01-26 10:47:00,
2013-01-26 05:52:00,6.5,4.7,30.23,NW,315,0.0,0.0,92,0.00,CLR,,0.00,WeatherDisplay:10.37,2013-01-26 10:52:00,
2013-01-26 05:57:00,6.4,4.6,30.23,NW,315,0.2,1.2,92,0.00,CLR,,0.00,WeatherDisplay:10.37,2013-01-26 10:57:00,
2013-01-26 06:02:00,6.4,4.6,30.24,NW,315,0.0,0.0,92,0.00,CLR,,0.00,WeatherDisplay:10.37,2013-01-26 11:02:00,
2013-01-26 06:07:00,6.2,4.4,30.24,NW,315,0.0,0.0,92,0.00,CLR,,0.00,WeatherDisplay:10.37,2013-01-26 11:07:00,
2013-01-26 06:12:00,6.1,4.3,30.24,NW,315,0.0,0.0,92,0.00,CLR,,0.00,WeatherDisplay:10.37,2013-01-26 11:12:00,
2013-01-26 06:17:00,6.2,4.4,30.24,NW,315,0.1,1.2,92,0.00,CLR,,0.00,WeatherDisplay:10.37,2013-01-26 11:17:00,
2013-01-26 06:22:00,6.3,4.5,30.24,NW,315,0.1,1.2,92,0.00,CLR,,0.00,WeatherDisplay:10.37,2013-01-26 11:22:00,
2013-01-26 06:27:00,6.2,4.4,30.24,NW,315,0.0,0.0,92,0.00,CLR,,0.00,WeatherDisplay:10.37,2013-01-26 11:27:00,
2013-01-26 06:32:00,5.9,4.1,30.23,NW,315,0.0,1.2,92,0.00,CLR,,0.00,WeatherDisplay:10.37,2013-01-26 11:32:00,
2013-01-26 06:37:00,6.2,4.4,30.24,NNE,22,0.0,0.0,92,0.00,CLR,,0.00,WeatherDisplay:10.37,2013-01-26 11:37:00,
2013-01-26 06:42:00,6.8,5.0,30.24,NW,315,0.9,2.3,92,0.00,CLR,,0.00,WeatherDisplay:10.37,2013-01-26 11:42:00,
2013-01-26 06:47:00,6.9,5.1,30.24,NW,315,0.0,1.2,92,0.00,CLR,,0.00,WeatherDisplay:10.37,2013-01-26 11:47:00,
2013-01-26 06:52:00,6.9,5.1,30.24,WNW,292,0.5,2.0,92,0.00,CLR,,0.00,WeatherDisplay:10.37,2013-01-26 11:52:00,
2013-01-26 06:57:00,7.5,5.7,30.24,WNW,292,0.1,2.3,92,0.00,CLR,,0.00,WeatherDisplay:10.37,2013-01-26 11:57:00,
2013-01-26 07:02:00,7.5,5.7,30.24,NW,315,0.0,2.3,92,0.00,CLR,,0.00,WeatherDisplay:10.37,2013-01-26 12:02:00,
2013-01-26 07:07:00,7.6,5.8,30.24,WNW,292,0.0,1.2,92,0.00,CLR,,0.00,WeatherDisplay:10.37,2013-01-26 12:07:00,
2013-01-26 07:12:00,7.8,6.0,30.24,West,270,0.6,2.3,92,0.00,CLR,,0.00,WeatherDisplay:10.37,2013-01-26 12:12:00,
2013-01-26 07:17:00,7.8,6.0,30.25,NW,315,0.7,2.0,92,0.00,CLR,,0.00,WeatherDisplay:10.37,2013-01-26 12:17:00,
2013-01-26 07:22:00,8.1,6.3,30.25,West,270,1.4,2.3,92,0.00,CLR,,0.00,WeatherDisplay:10.37,2013-01-26 12:22:00,
2013-01-26 07:27:00,7.9,6.1,30.25,NNW,337,0.6,2.3,92,0.00,CLR,,0.00,WeatherDisplay:10.37,2013-01-26 12:27:00,
2013-01-26 07:32:00,7.9,6.1,30.25,North,360,0.2,1.2,92,0.00,CLR,,0.00,WeatherDisplay:10.37,2013-01-26 12:32:00,
2013-01-26 07:37:00,8.2,6.4,30.25,WNW,292,1.3,3.5,92,0.00,CLR,,0.00,WeatherDisplay:10.37,2013-01-26 12:37:00,
2013-01-26 07:42:00,8.4,6.6,30.25,West,270,1.0,5.8,92,0.00,CLR,,0.00,WeatherDisplay:10.37,2013-01-26 12:42:00,
2013-01-26 07:47:00,8.8,7.0,30.25,NW,315,1.2,2.3,92,0.00,CLR,,0.00,WeatherDisplay:10.37,2013-01-26 12:47:00,
2013-01-26 07:52:00,9.1,7.2,30.25,North,360,1.5,2.3,92,0.00,CLR,,0.00,WeatherDisplay:10.37,2013-01-26 12:52:00,
2013-01-26 07:57:00,9.4,7.5,30.25,West,270,2.0,3.5,92,0.00,CLR,,0.00,WeatherDisplay:10.37,2013-01-26 12:57:00,
2013-01-26 08:02:00,9.6,7.7,30.25,SW,225,0.9,2.3,92,0.00,CLR,,0.00,WeatherDisplay:10.37,2013-01-26 13:02:00,
2013-01-26 08:07:00,9.9,7.8,30.26,NW,315,1.6,2.3,91,0.00,CLR,,0.00,WeatherDisplay:10.37,2013-01-26 13:07:00,
2013-01-26 08:13:00,10.2,8.1,30.26,North,360,1.3,2.3,91,0.00,CLR,,0.00,WeatherDisplay:10.37,2013-01-26 13:13:00,
2013-01-26 08:18:00,10.7,8.1,30.25,WSW,247,1.8,3.5,89,0.00,CLR,,0.00,WeatherDisplay:10.37,2013-01-26 13:18:00,
2013-01-26 08:23:00,11.1,8.5,30.25,North,360,1.2,2.3,89,0.00,CLR,,0.00,WeatherDisplay:10.37,2013-01-26 13:23:00,
2013-01-26 08:28:00,11.4,8.5,30.25,WNW,292,1.5,3.5,88,0.00,CLR,,0.00,WeatherDisplay:10.37,2013-01-26 13:28:00,
2013-01-26 08:33:00,11.7,8.1,30.25,North,360,1.4,5.8,85,0.00,CLR,,0.00,WeatherDisplay:10.37,2013-01-26 13:33:00,
2013-01-26 08:38:00,11.9,8.0,30.25,WNW,292,1.9,3.5,84,0.00,CLR,,0.00,WeatherDisplay:10.37,2013-01-26 13:38:00,
2013-01-26 08:43:00,12.2,7.8,30.25,NE,45,1.8,5.8,82,0.00,CLR,,0.00,WeatherDisplay:10.37,2013-01-26 13:43:00,
2013-01-26 08:48:00,12.5,8.0,30.25,NNW,337,2.3,3.5,82,0.00,CLR,,0.00,WeatherDisplay:10.37,2013-01-26 13:48:00,
2013-01-26 08:53:00,12.8,7.5,30.25,West,270,1.8,3.5,79,0.00,CLR,,0.00,WeatherDisplay:10.37,2013-01-26 13:53:00,
2013-01-26 08:58:00,13.2,8.2,30.25,WNW,292,3.8,5.8,80,0.00,CLR,,0.00,WeatherDisplay:10.37,2013-01-26 13:58:00,
2013-01-26 09:03:00,13.4,7.5,30.25,South,180,2.0,5.8,77,0.00,CLR,,0.00,WeatherDisplay:10.37,2013-01-26 14:03:00,
2013-01-26 09:08:00,13.7,7.2,30.26,North,360,2.5,5.8,75,0.00,CLR,,0.00,WeatherDisplay:10.37,2013-01-26 14:08:00,
2013-01-26 09:13:00,13.8,6.7,30.25,WNW,292,2.8,5.8,73,0.00,CLR,,0.00,WeatherDisplay:10.37,2013-01-26 14:13:00,
2013-01-26 09:18:00,14.2,7.1,30.26,West,270,2.2,4.6,73,0.00,CLR,,0.00,WeatherDisplay:10.37,2013-01-26 14:18:00,
2013-01-26 09:23:00,14.4,6.4,30.25,SE,135,3.8,6.9,70,0.00,CLR,,0.00,WeatherDisplay:10.37,2013-01-26 14:23:00,
2013-01-26 09:28:00,14.9,7.2,30.26,NE,45,2.8,4.6,71,0.00,CLR,,0.00,WeatherDisplay:10.37,2013-01-26 14:28:00,
2013-01-26 09:33:00,15.2,7.2,30.25,NW,315,2.5,8.1,70,0.00,CLR,,0.00,WeatherDisplay:10.37,2013-01-26 14:33:00,
2013-01-26 09:38:00,15.2,6.5,30.25,NNE,22,2.2,4.0,68,0.00,CLR,,0.00,WeatherDisplay:10.37,2013-01-26 14:38:00,
2013-01-26 09:43:00,15.6,6.9,30.25,WSW,247,1.7,3.5,68,0.00,CLR,,0.00,WeatherDisplay:10.37,2013-01-26 14:43:00,
2013-01-26 09:48:00,15.6,5.9,30.25,NNW,337,2.3,6.9,65,0.00,CLR,,0.00,WeatherDisplay:10.37,2013-01-26 14:48:00,
2013-01-26 09:53:00,15.9,6.5,30.25,WNW,292,2.0,4.0,66,0.00,CLR,,0.00,WeatherDisplay:10.37,2013-01-26 14:53:00,
2013-01-26 09:58:00,16.3,5.9,30.25,NE,45,1.5,3.5,63,0.00,CLR,,0.00,WeatherDisplay:10.37,2013-01-26 14:58:00,
2013-01-26 10:03:00,16.6,5.8,30.24,North,360,3.2,10.4,62,0.00,CLR,,0.00,WeatherDisplay:10.37,2013-01-26 15:03:00,
2013-01-26 10:08:00,16.9,5.4,30.23,SE,135,1.7,5.8,60,0.00,CLR,,0.00,WeatherDisplay:10.37,2013-01-26 15:08:00,
2013-01-26 10:13:00,17.5,6.0,30.23,West,270,1.9,5.8,60,0.00,CLR,,0.00,WeatherDisplay:10.37,2013-01-26 15:13:00,
2013-01-26 10:18:00,17.5,6.0,30.23,WNW,292,1.7,6.9,60,0.00,CLR,,0.00,WeatherDisplay:10.37,2013-01-26 15:18:00,
2013-01-26 10:23:00,17.9,6.0,30.23,WSW,247,2.5,5.8,59,0.00,CLR,,0.00,WeatherDisplay:10.37,2013-01-26 15:23:00,
2013-01-26 10:28:00,18.7,7.1,30.23,WSW,247,1.2,3.0,60,0.00,CLR,,0.00,WeatherDisplay:10.37,2013-01-26 15:28:00,
2013-01-26 10:33:00,19.1,6.3,30.23,North,360,1.5,3.5,57,0.00,CLR,,0.00,WeatherDisplay:10.37,2013-01-26 15:33:00,
2013-01-26 10:38:00,18.9,6.2,30.23,WNW,292,4.2,10.4,57,0.00,CLR,,0.00,WeatherDisplay:10.37,2013-01-26 15:38:00,
2013-01-26 10:43:00,18.9,6.5,30.23,West,270,1.4,4.6,58,0.00,CLR,,0.00,WeatherDisplay:10.37,2013-01-26 15:43:00,
2013-01-26 10:48:00,19.4,6.6,30.23,NNW,337,3.4,6.9,57,0.00,CLR,,0.00,WeatherDisplay:10.37,2013-01-26 15:48:00,
2013-01-26 10:53:00,19.5,5.9,30.22,West,270,2.6,7.0,55,0.00,CLR,,0.00,WeatherDisplay:10.37,2013-01-26 15:53:00,
2013-01-26 10:58:00,19.6,6.4,30.22,WNW,292,2.3,9.2,56,0.00,CLR,,0.00,WeatherDisplay:10.37,2013-01-26 15:58:00,
2013-01-26 11:03:00,19.9,7.1,30.22,NNE,22,2.0,6.9,57,0.00,CLR,,0.00,WeatherDisplay:10.37,2013-01-26 16:03:00,
2013-01-26 11:08:00,20.1,6.5,30.21,NE,45,2.9,5.8,55,0.00,CLR,,0.00,WeatherDisplay:10.37,2013-01-26 16:08:00,
2013-01-26 11:13:00,20.5,6.5,30.21,NW,315,3.0,5.8,54,0.00,CLR,,0.00,WeatherDisplay:10.37,2013-01-26 16:13:00,
2013-01-26 11:18:00,20.8,5.9,30.21,NNW,337,3.5,8.1,52,0.00,CLR,,0.00,WeatherDisplay:10.37,2013-01-26 16:18:00,
2013-01-26 11:23:00,20.7,5.8,30.21,WNW,292,1.5,5.8,52,0.00,CLR,,0.00,WeatherDisplay:10.37,2013-01-26 16:23:00,
2013-01-26 11:28:00,20.9,5.6,30.21,WNW,292,2.8,8.1,51,0.00,CLR,,0.00,WeatherDisplay:10.37,2013-01-26 16:28:00,
2013-01-26 11:33:00,21.1,5.3,30.21,North,360,3.5,5.8,50,0.00,CLR,,0.00,WeatherDisplay:10.37,2013-01-26 16:33:00,
2013-01-26 11:38:00,21.2,5.9,30.20,WNW,292,2.9,8.1,51,0.00,CLR,,0.00,WeatherDisplay:10.37,2013-01-26 16:38:00,
2013-01-26 11:43:00,21.6,5.8,30.19,NNW,337,2.9,5.8,50,0.00,CLR,,0.00,WeatherDisplay:10.37,2013-01-26 16:43:00,
2013-01-26 11:48:00,22.0,6.6,30.19,WSW,247,1.5,3.5,51,0.00,CLR,,0.00,WeatherDisplay:10.37,2013-01-26 16:48:00,
2013-01-26 11:53:00,21.9,6.5,30.19,North,360,2.9,5.8,51,0.00,CLR,,0.00,WeatherDisplay:10.37,2013-01-26 16:53:00,
2013-01-26 11:58:00,21.9,6.1,30.19,North,360,3.3,11.5,50,0.00,CLR,,0.00,WeatherDisplay:10.37,2013-01-26 16:58:00,
2013-01-26 12:03:00,22.8,7.8,30.19,NNE,22,3.8,6.0,52,0.00,CLR,,0.00,WeatherDisplay:10.37,2013-01-26 17:03:00,
2013-01-26 12:08:00,22.7,6.8,30.18,WNW,292,1.2,3.5,50,0.00,CLR,,0.00,WeatherDisplay:10.37,2013-01-26 17:08:00,
2013-01-26 12:13:00,22.7,7.3,30.18,WNW,292,3.2,5.8,51,0.00,CLR,,0.00,WeatherDisplay:10.37,2013-01-26 17:13:00,
2013-01-26 12:18:00,22.3,6.0,30.18,WNW,292,3.8,6.9,49,0.00,CLR,,0.00,WeatherDisplay:10.37,2013-01-26 17:18:00,
2013-01-26 12:23:00,22.7,5.9,30.18,NE,45,1.9,2.3,48,0.00,CLR,,0.00,WeatherDisplay:10.37,2013-01-26 17:23:00,
2013-01-26 12:28:00,23.5,6.7,30.18,WNW,292,1.4,4.0,48,0.00,CLR,,0.00,WeatherDisplay:10.37,2013-01-26 17:28:00,
2013-01-26 12:33:00,23.9,7.0,30.17,North,360,1.7,8.1,48,0.00,CLR,,0.00,WeatherDisplay:10.37,2013-01-26 17:33:00,
2013-01-26 12:38:00,24.0,7.1,30.17,NNE,22,2.1,3.5,48,0.00,CLR,,0.00,WeatherDisplay:10.37,2013-01-26 17:38:00,
2013-01-26 12:43:00,23.8,6.9,30.17,NW,315,2.2,3.5,48,0.00,CLR,,0.00,WeatherDisplay:10.37,2013-01-26 17:43:00,
2013-01-26 12:48:00,23.8,6.9,30.17,NE,45,2.4,5.8,48,0.00,CLR,,0.00,WeatherDisplay:10.37,2013-01-26 17:48:00,
2013-01-26 12:53:00,23.8,6.9,30.17,North,360,3.4,8.1,48,0.00,CLR,,0.00,WeatherDisplay:10.37,2013-01-26 17:53:00,
2013-01-26 12:58:00,24.0,7.1,30.17,WNW,292,2.6,5.8,48,0.00,CLR,,0.00,WeatherDisplay:10.37,2013-01-26 17:58:00,
2013-01-26 13:03:00,24.5,7.1,30.17,NE,45,1.8,5.8,47,0.00,CLR,,0.00,WeatherDisplay:10.37,2013-01-26 18:03:00,
2013-01-26 13:08:00,24.2,7.3,30.17,NW,315,2.8,6.0,48,0.00,CLR,,0.00,WeatherDisplay:10.37,2013-01-26 18:08:00,
2013-01-26 13:13:00,24.2,6.4,30.17,West,270,2.8,8.1,46,0.00,CLR,,0.00,WeatherDisplay:10.37,2013-01-26 18:13:00,
2013-01-26 13:18:00,23.9,5.1,30.17,West,270,4.1,11.5,44,0.00,CLR,,0.00,WeatherDisplay:10.37,2013-01-26 18:18:00,
2013-01-26 13:23:00,24.0,5.7,30.17,West,270,2.0,6.9,45,0.00,CLR,,0.00,WeatherDisplay:10.37,2013-01-26 18:23:00,
2013-01-26 13:28:00,24.8,5.4,30.17,NW,315,1.8,3.5,43,0.00,CLR,,0.00,WeatherDisplay:10.37,2013-01-26 18:28:00,
2013-01-26 13:33:00,25.2,5.8,30.17,NE,45,1.9,3.5,43,0.00,CLR,,0.00,WeatherDisplay:10.37,2013-01-26 18:33:00,
2013-01-26 13:38:00,24.9,5.0,30.17,West,270,2.1,3.5,42,0.00,CLR,,0.00,WeatherDisplay:10.37,2013-01-26 18:38:00,
2013-01-26 13:43:00,24.7,5.3,30.17,West,270,2.9,6.9,43,0.00,CLR,,0.00,WeatherDisplay:10.37,2013-01-26 18:43:00,
2013-01-26 13:48:00,24.7,7.3,30.17,North,360,3.3,8.1,47,0.00,CLR,,0.00,WeatherDisplay:10.37,2013-01-26 18:48:00,
2013-01-26 13:53:00,24.5,3.6,30.18,WNW,292,2.1,10.4,40,0.00,CLR,,0.00,WeatherDisplay:10.37,2013-01-26 18:53:00,
2013-01-26 13:58:00,24.7,3.2,30.18,West,270,3.2,9.2,39,0.00,CLR,,0.00,WeatherDisplay:10.37,2013-01-26 18:58:00,
2013-01-26 14:03:00,24.9,3.9,30.18,NNE,22,2.7,6.9,40,0.00,CLR,,0.00,WeatherDisplay:10.37,2013-01-26 19:03:00,
2013-01-26 14:08:00,24.7,3.8,30.18,NW,315,2.3,9.2,40,0.00,CLR,,0.00,WeatherDisplay:10.37,2013-01-26 19:08:00,
2013-01-26 14:13:00,24.6,3.7,30.18,SE,135,2.3,5.8,40,0.00,CLR,,0.00,WeatherDisplay:10.37,2013-01-26 19:13:00,
2013-01-26 14:18:00,24.9,3.9,30.18,NW,315,1.6,3.5,40,0.00,CLR,,0.00,WeatherDisplay:10.37,2013-01-26 19:18:00,
2013-01-26 14:23:00,24.6,3.7,30.19,WNW,292,4.3,11.5,40,0.00,CLR,,0.00,WeatherDisplay:10.37,2013-01-26 19:23:00,
2013-01-26 14:28:00,24.2,2.8,30.19,West,270,2.2,6.9,39,0.00,CLR,,0.00,WeatherDisplay:10.37,2013-01-26 19:28:00,
2013-01-26 14:33:00,23.8,2.4,30.19,NNW,337,3.8,10.4,39,0.00,CLR,,0.00,WeatherDisplay:10.37,2013-01-26 19:33:00,
2013-01-26 14:38:00,24.3,2.9,30.20,WSW,247,2.6,3.5,39,0.00,CLR,,0.00,WeatherDisplay:10.37,2013-01-26 19:38:00,
2013-01-26 14:43:00,23.8,3.0,30.20,West,270,3.3,5.8,40,0.00,CLR,,0.00,WeatherDisplay:10.37,2013-01-26 19:43:00,
2013-01-26 14:48:00,23.1,0.6,30.20,WNW,292,2.9,11.5,37,0.00,CLR,,0.00,WeatherDisplay:10.37,2013-01-26 19:48:00,
2013-01-26 14:53:00,22.9,1.0,30.21,WNW,292,2.1,6.9,38,0.00,CLR,,0.00,WeatherDisplay:10.37,2013-01-26 19:53:00,
2013-01-26 14:59:00,23.1,1.8,30.21,NNE,22,2.5,5.8,39,0.00,CLR,,0.00,WeatherDisplay:10.37,2013-01-26 19:59:00,
2013-01-26 15:04:00,23.1,1.2,30.21,West,270,4.4,8.1,38,0.00,CLR,,0.00,WeatherDisplay:10.37,2013-01-26 20:04:00,
2013-01-26 15:09:00,23.2,0.7,30.21,SE,135,3.8,7.0,37,0.00,CLR,,0.00,WeatherDisplay:10.37,2013-01-26 20:09:00,
2013-01-26 15:14:00,22.9,0.5,30.22,WNW,292,3.0,6.9,37,0.00,CLR,,0.00,WeatherDisplay:10.37,2013-01-26 20:14:00,
2013-01-26 15:19:00,22.7,0.3,30.22,North,360,2.5,5.8,37,0.00,CLR,,0.00,WeatherDisplay:10.37,2013-01-26 20:19:00,
2013-01-26 15:24:00,22.8,0.4,30.22,NNW,337,2.0,4.6,37,0.00,CLR,,0.00,WeatherDisplay:10.37,2013-01-26 20:24:00,
2013-01-26 15:29:00,22.6,-0.4,30.22,West,270,3.9,11.5,36,0.00,CLR,,0.00,WeatherDisplay:10.37,2013-01-26 20:29:00,
2013-01-26 15:34:00,22.6,0.8,30.22,West,270,4.1,11.5,38,0.00,CLR,,0.00,WeatherDisplay:10.37,2013-01-26 20:34:00,
2013-01-26 15:39:00,22.4,0.0,30.23,North,360,3.6,6.9,37,0.00,CLR,,0.00,WeatherDisplay:10.37,2013-01-26 20:39:00,
2013-01-26 15:44:00,22.2,0.4,30.23,NNW,337,3.6,6.9,38,0.00,CLR,,0.00,WeatherDisplay:10.37,2013-01-26 20:44:00,
2013-01-26 15:49:00,22.2,1.0,30.23,North,360,4.0,8.1,39,0.00,CLR,,0.00,WeatherDisplay:10.37,2013-01-26 20:49:00,
2013-01-26 15:54:00,22.1,0.3,30.23,West,270,3.1,10.4,38,0.00,CLR,,0.00,WeatherDisplay:10.37,2013-01-26 20:54:00,
2013-01-26 15:59:00,21.9,0.7,30.23,WSW,247,3.8,5.8,39,0.00,CLR,,0.00,WeatherDisplay:10.37,2013-01-26 20:59:00,
2013-01-26 16:04:00,21.7,0.5,30.23,WNW,292,1.4,3.5,39,0.00,CLR,,0.00,WeatherDisplay:10.37,2013-01-26 21:04:00,
2013-01-26 16:09:00,21.5,0.9,30.24,NE,45,3.5,5.8,40,0.00,CLR,,0.00,WeatherDisplay:10.37,2013-01-26 21:09:00,
2013-01-26 16:14:00,21.3,0.7,30.24,West,270,2.6,6.0,40,0.00,CLR,,0.00,WeatherDisplay:10.37,2013-01-26 21:14:00,
2013-01-26 16:19:00,21.2,0.1,30.26,WSW,247,2.9,5.8,39,0.00,CLR,,0.00,WeatherDisplay:10.37,2013-01-26 21:19:00,
2013-01-26 16:24:00,21.0,-0.1,30.26,West,270,1.8,3.5,39,0.00,CLR,,0.00,WeatherDisplay:10.37,2013-01-26 21:24:00,
2013-01-26 16:29:00,20.8,-0.3,30.26,North,360,3.5,6.9,39,0.00,CLR,,0.00,WeatherDisplay:10.37,2013-01-26 21:29:00,
2013-01-26 16:34:00,20.6,0.1,30.26,NE,45,2.0,5.8,40,0.00,CLR,,0.00,WeatherDisplay:10.37,2013-01-26 21:34:00,
2013-01-26 16:39:00,20.5,0.0,30.26,NNE,22,2.2,6.9,40,0.00,CLR,,0.00,WeatherDisplay:10.37,2013-01-26 21:39:00,
2013-01-26 16:44:00,20.3,-0.2,30.26,NNW,337,2.3,5.8,40,0.00,CLR,,0.00,WeatherDisplay:10.37,2013-01-26 21:44:00,
2013-01-26 16:49:00,20.2,0.2,30.26,NW,315,1.7,3.5,41,0.00,CLR,,0.00,WeatherDisplay:10.37,2013-01-26 21:49:00,
2013-01-26 16:54:00,20.1,0.1,30.26,WNW,292,2.3,5.8,41,0.00,CLR,,0.00,WeatherDisplay:10.37,2013-01-26 21:54:00,
2013-01-26 16:59:00,19.9,0.5,30.27,WNW,292,1.5,4.6,42,0.00,CLR,,0.00,WeatherDisplay:10.37,2013-01-26 21:59:00,
2013-01-26 17:04:00,19.7,0.8,30.27,NNE,22,0.6,2.3,43,0.00,SCT,,0.00,WeatherDisplay:10.37,2013-01-26 22:04:00,
2013-01-26 17:09:00,19.7,-0.2,30.27,NNE,22,1.9,5.8,41,0.00,SCT,,0.00,WeatherDisplay:10.37,2013-01-26 22:09:00,
2013-01-26 17:14:00,19.9,-1.7,30.27,WNW,292,3.7,9.2,38,0.00,SCT,,0.00,WeatherDisplay:10.37,2013-01-26 22:14:00,
2013-01-26 17:19:00,19.9,-1.1,30.27,WNW,292,3.6,9.2,39,0.00,SCT,,0.00,WeatherDisplay:10.37,2013-01-26 22:19:00,
2013-01-26 17:24:00,19.8,-2.3,30.28,WSW,247,1.7,6.0,37,0.00,SCT,,0.00,WeatherDisplay:10.37,2013-01-26 22:24:00,
2013-01-26 17:29:00,19.5,-3.8,30.28,WNW,292,5.5,13.8,35,0.00,SCT,,0.00,WeatherDisplay:10.37,2013-01-26 22:29:00,
2013-01-26 17:34:00,19.2,-3.4,30.28,North,360,2.5,5.8,36,0.00,SCT,,0.00,WeatherDisplay:10.37,2013-01-26 22:34:00,
2013-01-26 17:39:00,18.9,-4.9,30.29,NW,315,4.7,9.2,34,0.00,SCT,,0.00,WeatherDisplay:10.37,2013-01-26 22:39:00,
2013-01-26 17:44:00,18.8,-4.4,30.29,NNW,337,3.0,10.4,35,0.00,SCT,,0.00,WeatherDisplay:10.37,2013-01-26 22:44:00,
2013-01-26 17:49:00,18.5,-4.7,30.30,NNW,337,2.2,8.1,35,0.00,SCT,,0.00,WeatherDisplay:10.37,2013-01-26 22:49:00,
2013-01-26 17:54:00,18.3,-4.8,30.30,West,270,2.6,4.6,35,0.00,SCT,,0.00,WeatherDisplay:10.37,2013-01-26 22:54:00,
2013-01-26 17:59:00,18.1,-5.0,30.30,North,360,1.9,3.5,35,0.00,SCT,,0.00,WeatherDisplay:10.37,2013-01-26 22:59:00,
2013-01-26 18:04:00,17.9,-5.2,30.30,West,270,4.5,9.2,35,0.00,BKN,,0.00,WeatherDisplay:10.37,2013-01-26 23:04:00,
2013-01-26 18:09:00,17.7,-4.8,30.30,NNW,337,2.6,7.0,36,0.00,BKN,,0.00,WeatherDisplay:10.37,2013-01-26 23:09:00,
2013-01-26 18:14:00,17.6,-4.9,30.31,NE,45,2.7,11.5,36,0.00,BKN,,0.00,WeatherDisplay:10.37,2013-01-26 23:14:00,
2013-01-26 18:19:00,17.6,-4.9,30.32,NW,315,2.7,4.6,36,0.00,BKN,,0.00,WeatherDisplay:10.37,2013-01-26 23:19:00,
2013-01-26 18:24:00,17.7,-5.4,30.32,South,180,1.9,4.6,35,0.00,BKN,,0.00,WeatherDisplay:10.37,2013-01-26 23:24:00,
2013-01-26 18:29:00,17.7,-5.4,30.33,North,360,2.4,6.9,35,0.00,BKN,,0.00,WeatherDisplay:10.37,2013-01-26 23:29:00,
2013-01-26 18:34:00,17.7,-4.2,30.33,WSW,247,0.8,2.3,37,0.00,BKN,,0.00,WeatherDisplay:10.37,2013-01-26 23:34:00,
2013-01-26 18:39:00,17.7,-4.8,30.33,WNW,292,3.7,5.8,36,0.00,BKN,,0.00,WeatherDisplay:10.37,2013-01-26 23:39:00,
2013-01-26 18:44:00,17.6,-5.5,30.33,NNW,337,3.5,11.5,35,0.00,BKN,,0.00,WeatherDisplay:10.37,2013-01-26 23:44:00,
2013-01-26 18:49:00,17.5,-6.1,30.33,NW,315,4.5,9.2,34,0.00,BKN,,0.00,WeatherDisplay:10.37,2013-01-26 23:49:00,
2013-01-26 18:54:00,17.5,-5.5,30.34,North,360,4.4,12.7,35,0.00,BKN,,0.00,WeatherDisplay:10.37,2013-01-26 23:54:00,
2013-01-26 18:59:00,17.4,-5.1,30.34,NNW,337,3.2,11.5,36,0.00,BKN,,0.00,WeatherDisplay:10.37,2013-01-26 23:59:00,
2013-01-26 19:04:00,17.2,-5.2,30.35,WSW,247,3.2,11.5,36,0.00,CLR,,0.00,WeatherDisplay:10.37,2013-01-27 00:04:00,
2013-01-26 19:09:00,16.9,-4.9,30.34,West,270,4.9,11.5,37,0.00,CLR,,0.00,WeatherDisplay:10.37,2013-01-27 00:09:00,
2013-01-26 19:14:00,16.8,-5.6,30.35,WSW,247,4.8,11.5,36,0.00,CLR,,0.00,WeatherDisplay:10.37,2013-01-27 00:14:00,
2013-01-26 19:19:00,16.7,-5.1,30.35,NNE,22,1.4,6.0,37,0.00,CLR,,0.00,WeatherDisplay:10.37,2013-01-27 00:19:00,
2013-01-26 19:24:00,16.5,-4.7,30.35,NW,315,3.6,10.4,38,0.00,CLR,,0.00,WeatherDisplay:10.37,2013-01-27 00:24:00,
2013-01-26 19:29:00,16.4,-4.8,30.36,NW,315,3.2,10.4,38,0.00,CLR,,0.00,WeatherDisplay:10.37,2013-01-27 00:29:00,
2013-01-26 19:34:00,16.3,-4.4,30.37,WNW,292,2.4,6.9,39,0.00,CLR,,0.00,WeatherDisplay:10.37,2013-01-27 00:34:00,
2013-01-26 19:39:00,16.2,-3.9,30.37,NNW,337,4.0,6.9,40,0.00,CLR,,0.00,WeatherDisplay:10.37,2013-01-27 00:39:00,
2013-01-26 19:44:00,15.9,-3.2,30.38,NE,45,3.1,8.0,42,0.00,CLR,,0.00,WeatherDisplay:10.37,2013-01-27 00:44:00,
2013-01-26 19:49:00,16.1,-3.0,30.38,NW,315,2.9,6.9,42,0.00,CLR,,0.00,WeatherDisplay:10.37,2013-01-27 00:49:00,
2013-01-26 19:54:00,16.1,-3.0,30.38,NNW,337,4.8,12.7,42,0.00,CLR,,0.00,WeatherDisplay:10.37,2013-01-27 00:54:00,
2013-01-26 19:59:00,15.9,-3.2,30.38,NW,315,1.3,4.6,42,0.00,CLR,,0.00,WeatherDisplay:10.37,2013-01-27 00:59:00,
2013-01-26 20:04:00,15.9,-2.7,30.38,West,270,1.3,3.5,43,0.00,CLR,,0.00,WeatherDisplay:10.37,2013-01-27 01:04:00,
2013-01-26 20:09:00,15.9,-2.7,30.38,NNW,337,3.9,10.4,43,0.00,CLR,,0.00,WeatherDisplay:10.37,2013-01-27 01:09:00,
2013-01-26 20:14:00,15.7,-2.4,30.38,SE,135,3.8,9.2,44,0.00,CLR,,0.00,WeatherDisplay:10.37,2013-01-27 01:14:00,
2013-01-26 20:19:00,15.8,-2.3,30.38,NNE,22,2.6,5.8,44,0.00,CLR,,0.00,WeatherDisplay:10.37,2013-01-27 01:19:00,
2013-01-26 20:24:00,15.5,-1.6,30.38,West,270,1.4,3.0,46,0.00,CLR,,0.00,WeatherDisplay:10.37,2013-01-27 01:24:00,
2013-01-26 20:29:00,15.4,-2.2,30.38,North,360,1.7,5.8,45,0.00,CLR,,0.00,WeatherDisplay:10.37,2013-01-27 01:29:00,
2013-01-26 20:34:00,15.4,-2.2,30.38,North,360,3.3,5.8,45,0.00,CLR,,0.00,WeatherDisplay:10.37,2013-01-27 01:34:00,
2013-01-26 20:39:00,15.4,-1.7,30.39,NNW,337,3.4,8.1,46,0.00,CLR,,0.00,WeatherDisplay:10.37,2013-01-27 01:39:00,
2013-01-26 20:44:00,15.4,-1.7,30.39,SSW,202,1.2,3.5,46,0.00,CLR,,0.00,WeatherDisplay:10.37,2013-01-27 01:44:00,
2013-01-26 20:49:00,15.2,-1.9,30.39,NNE,22,3.0,9.2,46,0.00,CLR,,0.00,WeatherDisplay:10.37,2013-01-27 01:49:00,
2013-01-26 20:54:00,15.1,-1.5,30.39,NNW,337,2.7,5.8,47,0.00,CLR,,0.00,WeatherDisplay:10.37,2013-01-27 01:54:00,
2013-01-26 20:59:00,14.9,-1.7,30.40,NNE,22,1.7,5.0,47,0.00,CLR,,0.00,WeatherDisplay:10.37,2013-01-27 01:59:00,
2013-01-26 21:04:00,14.9,-2.2,30.40,WSW,247,2.4,5.8,46,0.00,CLR,,0.00,WeatherDisplay:10.37,2013-01-27 02:04:00,
2013-01-26 21:09:00,14.8,-1.8,30.40,NW,315,1.9,4.6,47,0.00,CLR,,0.00,WeatherDisplay:10.37,2013-01-27 02:09:00,
2013-01-26 21:14:00,14.6,-1.6,30.40,WSW,247,2.5,3.5,48,0.00,CLR,,0.00,WeatherDisplay:10.37,2013-01-27 02:14:00,
2013-01-26 21:19:00,14.6,-1.6,30.40,WSW,247,2.3,5.8,48,0.00,CLR,,0.00,WeatherDisplay:10.37,2013-01-27 02:19:00,
2013-01-26 21:24:00,14.4,-1.7,30.41,North,360,2.6,5.8,48,0.00,CLR,,0.00,WeatherDisplay:10.37,2013-01-27 02:24:00,
2013-01-26 21:29:00,14.4,-1.3,30.41,NNW,337,2.0,4.6,49,0.00,CLR,,0.00,WeatherDisplay:10.37,2013-01-27 02:29:00,
2013-01-26 21:34:00,14.2,-1.5,30.41,West,270,2.1,4.6,49,0.00,CLR,,0.00,WeatherDisplay:10.37,2013-01-27 02:34:00,
2013-01-26 21:39:00,14.4,-1.3,30.41,WSW,247,2.6,9.2,49,0.00,CLR,,0.00,WeatherDisplay:10.37,2013-01-27 02:39:00,
2013-01-26 21:44:00,14.3,-1.0,30.41,WNW,292,2.3,8.1,50,0.00,CLR,,0.00,WeatherDisplay:10.37,2013-01-27 02:44:00,
2013-01-26 21:49:00,14.3,-1.0,30.41,WNW,292,3.8,5.8,50,0.00,CLR,,0.00,WeatherDisplay:10.37,2013-01-27 02:49:00,
2013-01-26 21:54:00,14.3,-1.0,30.42,West,270,1.9,5.8,50,0.00,CLR,,0.00,WeatherDisplay:10.37,2013-01-27 02:54:00,
2013-01-26 21:59:00,14.3,-1.0,30.42,West,270,3.1,6.9,50,0.00,CLR,,0.00,WeatherDisplay:10.37,2013-01-27 02:59:00,
2013-01-26 22:04:00,14.2,-0.6,30.42,North,360,2.7,7.0,51,0.00,CLR,,0.00,WeatherDisplay:10.37,2013-01-27 03:04:00,
2013-01-26 22:09:00,14.1,-1.2,30.42,WNW,292,2.4,9.2,50,0.00,CLR,,0.00,WeatherDisplay:10.37,2013-01-27 03:09:00,
2013-01-26 22:14:00,13.9,-0.9,30.42,NNW,337,1.5,3.5,51,0.00,CLR,,0.00,WeatherDisplay:10.37,2013-01-27 03:14:00,
2013-01-26 22:19:00,13.7,-0.7,30.43,WNW,292,1.2,2.3,52,0.00,CLR,,0.00,WeatherDisplay:10.37,2013-01-27 03:19:00,
2013-01-26 22:24:00,13.4,-0.6,30.43,West,270,2.4,5.8,53,0.00,CLR,,0.00,WeatherDisplay:10.37,2013-01-27 03:24:00,
2013-01-26 22:29:00,13.3,-0.3,30.43,NNW,337,0.9,2.3,54,0.00,CLR,,0.00,WeatherDisplay:10.37,2013-01-27 03:29:00,
2013-01-26 22:34:00,13.4,-0.2,30.44,NE,45,0.7,3.5,54,0.00,CLR,,0.00,WeatherDisplay:10.37,2013-01-27 03:34:00,
2013-01-26 22:39:00,13.2,-0.4,30.44,NNE,22,0.5,4.6,54,0.00,CLR,,0.00,WeatherDisplay:10.37,2013-01-27 03:39:00,
2013-01-26 22:44:00,13.3,-0.3,30.44,WNW,292,2.1,6.0,54,0.00,CLR,,0.00,WeatherDisplay:10.37,2013-01-27 03:44:00,
2013-01-26 22:49:00,13.2,0.0,30.44,North,360,1.1,2.3,55,0.00,CLR,,0.00,WeatherDisplay:10.37,2013-01-27 03:49:00,
2013-01-26 22:54:00,13.2,0.0,30.44,WNW,292,0.9,3.5,55,0.00,CLR,,0.00,WeatherDisplay:10.37,2013-01-27 03:54:00,
2013-01-26 22:59:00,13.2,-0.4,30.44,WNW,292,1.8,5.8,54,0.00,CLR,,0.00,WeatherDisplay:10.37,2013-01-27 03:59:00,
2013-01-26 23:04:00,13.2,-0.4,30.44,WSW,247,1.8,3.5,54,0.00,CLR,,0.00,WeatherDisplay:10.37,2013-01-27 04:04:00,
2013-01-26 23:09:00,12.9,-0.3,30.44,WNW,292,1.2,3.5,55,0.00,CLR,,0.00,WeatherDisplay:10.37,2013-01-27 04:09:00,
2013-01-26 23:14:00,12.9,-0.3,30.45,WNW,292,2.7,3.5,55,0.00,CLR,,0.00,WeatherDisplay:10.37,2013-01-27 04:14:00,
2013-01-26 23:19:00,12.9,-0.3,30.44,NNE,22,1.0,3.5,55,0.00,CLR,,0.00,WeatherDisplay:10.37,2013-01-27 04:19:00,
2013-01-26 23:24:00,12.8,-0.3,30.45,SW,225,1.1,3.5,55,0.00,CLR,,0.00,WeatherDisplay:10.37,2013-01-27 04:24:00,
2013-01-26 23:29:00,12.7,-0.1,30.45,West,270,0.0,2.3,56,0.00,CLR,,0.00,WeatherDisplay:10.37,2013-01-27 04:29:00,
2013-01-26 23:34:00,12.4,-0.3,30.45,SW,225,0.4,2.3,56,0.00,CLR,,0.00,WeatherDisplay:10.37,2013-01-27 04:34:00,
2013-01-26 23:39:00,12.3,-0.1,30.45,NNW,337,1.3,2.3,57,0.00,CLR,,0.00,WeatherDisplay:10.37,2013-01-27 04:39:00,
2013-01-26 23:44:00,12.5,0.1,30.45,NE,45,2.1,3.5,57,0.00,CLR,,0.00,WeatherDisplay:10.37,2013-01-27 04:44:00,
2013-01-26 23:49:00,12.6,0.2,30.45,West,270,1.5,3.5,57,0.00,CLR,,0.00,WeatherDisplay:10.37,2013-01-27 04:49:00,
2013-01-26 23:54:00,12.8,0.4,30.44,North,360,3.1,6.9,57,0.00,CLR,,0.00,WeatherDisplay:10.37,2013-01-27 04:54:00,
2013-01-26 23:59:00,12.9,0.5,30.44,WSW,247,2.9,4.6,57,0.00,CLR,,0.00,WeatherDisplay:10.37,2013-01-27 04:59:00,